Time;durP1;ratioP1;P1;durP2;ratioP2;P2;SDS_P1;SDS_P2;PMS_P1;PMS_P2;Temp;Humidity;BMP_temperature;BMP_pressure;BME280_temperature;BME280_humidity;BME280_pressure;Samples;Min_cycle;Max_cycle;Signal;HPM_P1;HPM_P2
2022/08/14 00:00:22;;;;;;;4.57;3.55;;;21.00;99.90;;;;;;5033106;28;20050;-68
2022/08/14 00:02:48;;;;;;;4.32;3.92;;;21.00;99.90;;;;;;5032990;28;20339;-68
2022/08/14 00:05:17;;;;;;;5.00;4.05;;;20.90;99.90;;;;;;5033073;28;20045;-68
2022/08/14 00:07:43;;;;;;;5.15;4.18;;;20.80;99.90;;;;;;5032986;28;20081;-69
2022/08/14 00:10:13;;;;;;;5.15;3.78;;;20.80;99.90;;;;;;5034286;28;20426;-69
2022/08/14 00:12:44;;;;;;;4.25;3.60;;;20.70;99.90;;;;;;5037057;28;20079;-69
2022/08/14 00:15:29;;;;;;;5.85;4.50;;;20.60;99.90;;;;;;5037097;28;20107;-68
2022/08/14 00:17:55;;;;;;;4.78;4.03;;;20.60;99.90;;;;;;5037428;28;20049;-68
2022/08/14 00:20:25;;;;;;;4.72;3.78;;;20.50;99.90;;;;;;5036866;28;20080;-69
2022/08/14 00:22:51;;;;;;;5.00;4.13;;;20.50;99.90;;;;;;5036834;28;20060;-68
2022/08/14 00:25:17;;;;;;;5.53;4.05;;;20.40;99.90;;;;;;5037443;28;20124;-68
2022/08/14 00:27:43;;;;;;;4.32;3.78;;;20.40;99.90;;;;;;5037293;28;20051;-69
2022/08/14 00:30:10;;;;;;;4.70;3.75;;;20.40;99.90;;;;;;5036588;28;20137;-68
2022/08/14 00:32:39;;;;;;;4.57;4.10;;;20.40;99.90;;;;;;5036635;28;20055;-69
2022/08/14 00:35:06;;;;;;;5.63;4.05;;;20.40;99.90;;;;;;5036988;28;20488;-69
2022/08/14 00:37:33;;;;;;;4.32;3.92;;;20.40;99.90;;;;;;5036449;28;20041;-68
2022/08/14 00:40:00;;;;;;;4.32;3.92;;;20.40;99.90;;;;;;5036477;28;20048;-69
2022/08/14 00:42:27;;;;;;;5.00;4.10;;;20.40;99.90;;;;;;5019219;28;20091;-69
2022/08/14 00:44:54;;;;;;;6.95;3.90;;;20.50;99.90;;;;;;5036677;28;20367;-69
2022/08/14 00:47:23;;;;;;;4.72;4.15;;;20.50;99.90;;;;;;5036907;28;20041;-69
2022/08/14 00:49:50;;;;;;;4.30;3.90;;;20.50;99.90;;;;;;5036383;28;20099;-69
2022/08/14 00:52:16;;;;;;;4.70;3.97;;;20.50;99.90;;;;;;5037038;28;20092;-68
2022/08/14 00:54:43;;;;;;;4.85;3.97;;;20.50;99.90;;;;;;5036316;28;20350;-68
2022/08/14 00:57:10;;;;;;;4.55;4.00;;;20.50;99.90;;;;;;5018427;28;20481;-69
2022/08/14 00:59:36;;;;;;;4.88;4.22;;;20.50;99.90;;;;;;5035744;28;20466;-68
2022/08/14 01:02:04;;;;;;;5.82;3.85;;;20.40;99.90;;;;;;5036090;28;20051;-69
2022/08/14 01:04:35;;;;;;;5.43;4.00;;;20.40;99.90;;;;;;5018642;28;20057;-68
2022/08/14 01:07:01;;;;;;;5.45;4.30;;;20.40;99.90;;;;;;5018490;28;20478;-69
2022/08/14 01:09:29;;;;;;;4.95;4.45;;;20.40;99.90;;;;;;5035938;28;20045;-68
2022/08/14 01:11:56;;;;;;;6.43;4.55;;;20.40;99.90;;;;;;5019243;28;20046;-68
2022/08/14 01:14:22;;;;;;;5.05;4.55;;;20.40;99.90;;;;;;5035514;28;20489;-68
2022/08/14 01:16:48;;;;;;;5.28;4.38;;;20.40;99.90;;;;;;5035508;28;20081;-69
2022/08/14 01:22:06;;;;;;;5.20;4.70;;;20.30;99.90;;;;;;4997700;28;20504;-68
2022/08/14 01:24:32;;;;;;;4.90;4.32;;;20.30;99.90;;;;;;5035632;28;20045;-68
2022/08/14 01:26:58;;;;;;;4.80;4.30;;;20.30;99.90;;;;;;5035633;28;20119;-69
2022/08/14 01:29:26;;;;;;;6.10;4.88;;;20.30;99.90;;;;;;5036389;28;20150;-68
2022/08/14 01:31:52;;;;;;;5.72;4.72;;;20.30;99.90;;;;;;5035367;28;20049;-68
2022/08/14 01:34:25;;;;;;;5.50;4.43;;;20.30;99.90;;;;;;5035540;28;20048;-68
2022/08/14 01:36:52;;;;;;;4.82;4.10;;;20.30;99.90;;;;;;5035369;28;20040;-68
2022/08/14 01:39:19;;;;;;;5.22;4.40;;;20.20;99.90;;;;;;5035393;28;20124;-68
2022/08/14 01:41:55;;;;;;;5.25;4.20;;;20.20;99.90;;;;;;5035316;28;20092;-68
2022/08/14 01:44:21;;;;;;;;;;;20.20;99.90;;;;;;5036061;28;20041;-69
2022/08/14 01:46:46;;;;;;;4.20;3.80;;;20.20;99.90;;;;;;5035352;28;20392;-68
2022/08/14 01:49:14;;;;;;;4.85;4.20;;;20.20;99.90;;;;;;5034881;28;20107;-68
2022/08/14 01:51:42;;;;;;;4.90;4.40;;;20.20;99.90;;;;;;5034868;28;20049;-68
2022/08/14 01:54:11;;;;;;;4.80;4.30;;;20.10;99.90;;;;;;5018511;28;20048;-68
2022/08/14 01:56:39;;;;;;;5.18;4.68;;;20.10;99.90;;;;;;5035048;28;20051;-68
2022/08/14 01:59:34;;;;;;;5.03;4.50;;;20.10;99.90;;;;;;5035485;28;20043;-68
2022/08/14 02:02:04;;;;;;;5.20;4.70;;;20.10;99.90;;;;;;5035074;28;20057;-68
2022/08/14 02:04:34;;;;;;;5.05;4.13;;;20.10;99.90;;;;;;5034915;28;20033;-68
2022/08/14 02:07:01;;;;;;;5.10;4.57;;;20.10;99.90;;;;;;5035425;28;20080;-68
2022/08/14 02:09:33;;;;;;;5.80;4.60;;;20.00;99.90;;;;;;5034825;28;20048;-68
2022/08/14 02:12:01;;;;;;;5.47;4.82;;;19.90;99.90;;;;;;5035169;28;20514;-68
2022/08/14 02:14:27;;;;;;;5.65;4.30;;;19.80;99.90;;;;;;5034751;28;20045;-68
2022/08/14 02:16:53;;;;;;;4.65;3.90;;;19.70;99.90;;;;;;5034586;28;20519;-68
2022/08/14 02:19:25;;;;;;;5.97;4.43;;;19.60;99.90;;;;;;5035028;28;20120;-68
2022/08/14 02:21:53;;;;;;;5.22;4.72;;;19.60;99.90;;;;;;5035338;28;20049;-68
2022/08/14 02:24:22;;;;;;;7.03;5.43;;;19.60;99.90;;;;;;5034499;28;20541;-68
2022/08/14 02:26:48;;;;;;;7.95;4.88;;;19.70;99.90;;;;;;5035293;28;20042;-69
2022/08/14 02:29:17;;;;;;;4.93;4.43;;;19.70;99.90;;;;;;5034460;28;20041;-68
2022/08/14 02:31:45;;;;;;;5.00;4.50;;;19.60;99.90;;;;;;5034886;28;20487;-68
2022/08/14 02:34:43;;;;;;;6.10;4.90;;;19.40;99.90;;;;;;5033856;28;20234;-68
2022/08/14 02:37:11;;;;;;;5.78;4.75;;;19.30;99.90;;;;;;5031179;28;20497;-69
2022/08/14 02:39:46;;;;;;;5.20;4.55;;;19.10;99.90;;;;;;5034231;28;20042;-69
2022/08/14 02:42:19;;;;;;;4.70;4.10;;;19.10;99.90;;;;;;5017074;28;20132;-68
2022/08/14 02:44:44;;;;;;;5.22;4.57;;;19.10;99.90;;;;;;5034755;28;20115;-68
2022/08/14 02:47:11;;;;;;;6.20;4.95;;;19.10;99.90;;;;;;5034919;28;20084;-69
2022/08/14 02:49:37;;;;;;;5.15;4.65;;;19.20;99.90;;;;;;5033952;28;20041;-68
2022/08/14 02:52:06;;;;;;;5.18;4.68;;;19.20;99.90;;;;;;5034503;28;20085;-68
2022/08/14 02:54:33;;;;;;;5.25;4.75;;;19.20;99.90;;;;;;5033645;28;20442;-68
2022/08/14 02:56:59;;;;;;;5.93;5.30;;;19.20;99.90;;;;;;5033923;28;20037;-68
2022/08/14 02:59:30;;;;;;;6.22;5.30;;;19.30;99.90;;;;;;5033964;28;20045;-68
2022/08/14 03:01:56;;;;;;;6.00;4.55;;;19.30;99.90;;;;;;5016769;28;20128;-68
2022/08/14 03:04:22;;;;;;;6.68;5.30;;;19.30;99.90;;;;;;5034349;28;20446;-68
2022/08/14 03:06:49;;;;;;;5.85;5.07;;;19.20;99.90;;;;;;5016391;28;20056;-68
2022/08/14 03:09:15;;;;;;;5.82;5.20;;;19.20;99.90;;;;;;5033747;28;20045;-68
2022/08/14 03:11:43;;;;;;;5.40;4.85;;;19.20;99.90;;;;;;5033687;28;20128;-68
2022/08/14 03:14:10;;;;;;;6.32;5.20;;;19.10;99.90;;;;;;5033923;28;20120;-68
2022/08/14 03:16:37;;;;;;;5.57;4.85;;;19.10;99.90;;;;;;5034049;28;20076;-68
2022/08/14 03:19:06;;;;;;;5.82;4.85;;;19.10;99.90;;;;;;5034050;28;20049;-69
2022/08/14 03:21:32;;;;;;;5.85;4.78;;;19.10;99.90;;;;;;5033545;28;20099;-68
2022/08/14 03:26:33;;;;;;;6.18;4.72;;;19.10;99.90;;;;;;5033547;28;20045;-68
2022/08/14 03:29:01;;;;;;;6.03;5.00;;;19.10;99.90;;;;;;5033411;28;20045;-68
2022/08/14 03:31:28;;;;;;;6.05;5.18;;;19.10;99.90;;;;;;5033789;28;20057;-68
2022/08/14 03:33:54;;;;;;;6.47;5.20;;;19.10;99.90;;;;;;5033419;28;20045;-69
2022/08/14 03:36:21;;;;;;;8.45;5.22;;;19.10;99.90;;;;;;5033323;28;20041;-69
2022/08/14 03:38:49;;;;;;;7.30;5.93;;;19.10;99.90;;;;;;5033969;28;20060;-68
2022/08/14 03:41:23;;;;;;;5.75;5.15;;;19.10;99.90;;;;;;5033327;28;20045;-68
2022/08/14 03:43:55;;;;;;;6.07;5.20;;;19.00;99.90;;;;;;5016122;28;20491;-68
2022/08/14 03:46:22;;;;;;;6.45;5.25;;;19.00;99.90;;;;;;5015648;28;20048;-68
2022/08/14 03:48:48;;;;;;;7.22;5.30;;;19.00;99.90;;;;;;5033157;28;20041;-68
2022/08/14 03:51:14;;;;;;;5.57;5.00;;;19.00;99.90;;;;;;5033195;28;20044;-68
2022/08/14 03:53:45;;;;;;;6.25;5.40;;;18.90;99.90;;;;;;5033129;28;20052;-68
2022/08/14 03:56:14;;;;;;;5.78;5.18;;;18.90;99.90;;;;;;5032837;28;20502;-68
2022/08/14 03:58:49;;;;;;;6.60;4.70;;;18.90;99.90;;;;;;5033636;28;20041;-68
2022/08/14 04:01:18;;;;;;;6.07;5.47;;;18.80;99.90;;;;;;5033977;28;20099;-68
2022/08/14 04:03:44;;;;;;;6.50;5.90;;;18.80;99.90;;;;;;5033124;28;20084;-68
2022/08/14 04:06:10;;;;;;;5.72;5.13;;;18.80;99.90;;;;;;5033035;28;20504;-68
2022/08/14 04:08:40;;;;;;;5.90;5.30;;;18.70;99.90;;;;;;5015702;28;20038;-68
2022/08/14 04:11:07;;;;;;;5.55;5.03;;;18.70;99.90;;;;;;5015973;28;20128;-68
2022/08/14 04:13:35;;;;;;;6.35;5.75;;;18.70;99.90;;;;;;5032931;28;20131;-68
2022/08/14 04:16:07;;;;;;;7.25;5.53;;;18.70;99.90;;;;;;5032180;28;20037;-68
2022/08/14 04:18:33;;;;;;;6.88;5.43;;;18.70;99.90;;;;;;5032329;28;20124;-68
2022/08/14 04:20:59;;;;;;;6.10;5.40;;;18.70;99.90;;;;;;5032740;28;20124;-68
2022/08/14 04:23:25;;;;;;;6.93;5.80;;;18.70;99.90;;;;;;5032726;28;20236;-68
2022/08/14 04:25:52;;;;;;;6.63;5.95;;;18.70;99.90;;;;;;5032831;28;20517;-68
2022/08/14 04:28:19;;;;;;;6.88;6.00;;;18.70;99.90;;;;;;5032730;28;20072;-68
2022/08/14 04:30:44;;;;;;;7.55;6.20;;;18.70;99.90;;;;;;5032917;28;20054;-68
2022/08/14 04:33:10;;;;;;;6.65;5.72;;;18.70;99.90;;;;;;5032795;28;20057;-68
2022/08/14 04:35:37;;;;;;;7.00;6.22;;;18.70;99.90;;;;;;5032825;28;20435;-68
2022/08/14 04:43:49;;;;;;;8.77;6.43;;;18.70;99.90;;;;;;4979421;28;20078;-68
2022/08/14 04:46:18;;;;;;;6.45;5.85;;;18.70;99.90;;;;;;5015594;28;20144;-68
2022/08/14 04:48:44;;;;;;;6.53;5.85;;;18.70;99.90;;;;;;5032610;28;20085;-68
2022/08/14 04:51:12;;;;;;;6.95;6.25;;;18.80;99.90;;;;;;5033172;28;20128;-68
2022/08/14 04:53:42;;;;;;;6.72;6.07;;;18.80;99.90;;;;;;5033174;28;20033;-68
2022/08/14 04:56:12;;;;;;;6.90;6.05;;;18.80;99.90;;;;;;5015827;28;20045;-68
2022/08/14 04:58:38;;;;;;;6.85;6.15;;;18.90;99.90;;;;;;5037002;28;20045;-68
2022/08/14 05:01:06;;;;;;;6.90;6.07;;;18.80;99.90;;;;;;5019025;28;20476;-68
2022/08/14 05:03:34;;;;;;;8.15;5.78;;;18.90;99.90;;;;;;5036069;28;20103;-68
2022/08/14 05:06:02;;;;;;;7.18;6.47;;;18.90;99.90;;;;;;5036827;28;20088;-68
2022/08/14 05:08:29;;;;;;;6.88;6.18;;;19.00;99.90;;;;;;5018197;28;20045;-68
2022/08/14 05:10:57;;;;;;;7.47;6.28;;;19.00;99.90;;;;;;5018829;28;20045;-68
2022/08/14 05:13:25;;;;;;;8.20;6.57;;;19.00;99.90;;;;;;5035949;28;20389;-68
2022/08/14 05:15:52;;;;;;;7.63;6.18;;;19.00;99.90;;;;;;5036088;28;20068;-68
2022/08/14 05:18:20;;;;;;;8.55;6.80;;;19.00;99.90;;;;;;5035707;28;20041;-68
2022/08/14 05:20:48;;;;;;;6.72;6.03;;;19.00;99.90;;;;;;5036318;28;20049;-68
2022/08/14 05:23:20;;;;;;;7.00;5.90;;;19.10;99.90;;;;;;5035996;28;20046;-68
2022/08/14 05:25:47;;;;;;;6.90;6.22;;;19.20;99.90;;;;;;5035792;28;20040;-68
2022/08/14 05:28:18;;;;;;;7.10;5.90;;;19.30;99.90;;;;;;5018186;28;20167;-68
2022/08/14 05:30:51;;;;;;;7.78;6.18;;;19.50;99.90;;;;;;5036154;28;20080;-68
2022/08/14 05:33:19;;;;;;;8.35;6.55;;;19.60;99.90;;;;;;5035586;28;20605;-68
2022/08/14 05:35:47;;;;;;;6.72;6.05;;;19.70;99.90;;;;;;5035493;28;20044;-68
2022/08/14 05:38:15;;;;;;;6.93;6.22;;;19.80;99.90;;;;;;5035480;28;20056;-68
2022/08/14 05:40:48;;;;;;;8.43;6.63;;;19.90;99.90;;;;;;5018553;28;20382;-68
2022/08/14 05:43:15;;;;;;;7.50;6.78;;;20.00;99.90;;;;;;5035974;28;20461;-68
2022/08/14 05:45:41;;;;;;;7.45;6.65;;;20.00;99.90;;;;;;5035076;28;20370;-68
2022/08/14 05:48:12;;;;;;;7.00;5.97;;;20.00;99.90;;;;;;5017750;28;20052;-69
2022/08/14 05:50:37;;;;;;;6.78;6.07;;;20.00;99.90;;;;;;5035319;28;20122;-68
2022/08/14 05:53:03;;;;;;;6.68;5.95;;;20.10;99.90;;;;;;5017553;28;20077;-68
2022/08/14 05:55:29;;;;;;;6.93;6.22;;;20.20;99.90;;;;;;5035557;28;20041;-68
2022/08/14 05:57:58;;;;;;;7.35;6.65;;;20.30;99.90;;;;;;5035605;28;20038;-68
2022/08/14 06:00:27;;;;;;;7.13;6.18;;;20.40;99.90;;;;;;5034979;28;20052;-68
2022/08/14 06:02:55;;;;;;;6.90;6.20;;;20.50;99.90;;;;;;5035037;28;20045;-68
2022/08/14 06:05:24;;;;;;;7.60;6.45;;;20.60;99.90;;;;;;5035732;28;20045;-68
2022/08/14 06:07:49;;;;;;;7.43;6.60;;;20.70;99.90;;;;;;5033845;28;20354;-68
2022/08/14 06:10:15;;;;;;;7.05;6.32;;;20.80;99.90;;;;;;5034995;28;20051;-68
2022/08/14 06:12:41;;;;;;;7.95;6.28;;;20.90;99.90;;;;;;5034774;28;20466;-68
2022/08/14 06:15:08;;;;;;;6.97;6.28;;;21.00;99.90;;;;;;5034803;28;20056;-69
2022/08/14 06:17:48;;;;;;;7.82;6.75;;;21.10;99.90;;;;;;5034534;28;20505;-68
2022/08/14 06:20:15;;;;;;;9.60;6.70;;;21.20;99.90;;;;;;5035184;28;20489;-68
2022/08/14 06:22:42;;;;;;;7.60;6.53;;;21.30;99.90;;;;;;5034549;28;20103;-68
2022/08/14 06:25:10;;;;;;;7.63;6.15;;;21.40;99.90;;;;;;5034570;28;20048;-68
2022/08/14 06:27:37;;;;;;;7.00;5.82;;;21.50;99.90;;;;;;5034530;28;20120;-68
2022/08/14 06:30:06;;;;;;;6.43;5.82;;;21.60;99.90;;;;;;5034219;28;20041;-68
2022/08/14 06:32:32;;;;;;;6.82;6.13;;;21.70;99.90;;;;;;5034372;28;20049;-68
2022/08/14 06:34:57;;;;;;;7.05;6.07;;;21.90;99.90;;;;;;5034839;28;20045;-68
2022/08/14 06:37:23;;;;;;;6.85;6.05;;;22.00;99.90;;;;;;5034237;28;20251;-68
2022/08/14 06:39:49;;;;;;;8.95;6.50;;;22.10;99.90;;;;;;5034276;28;20052;-68
2022/08/14 06:42:14;;;;;;;7.25;6.00;;;22.20;99.90;;;;;;5033967;28;20055;-68
2022/08/14 06:44:40;;;;;;;7.05;6.10;;;22.30;99.90;;;;;;5034226;28;20073;-68
2022/08/14 06:47:06;;;;;;;5.90;5.28;;;22.40;99.90;;;;;;5016430;28;20106;-68
2022/08/14 06:49:32;;;;;;;6.82;5.38;;;22.50;99.90;;;;;;5034045;28;20045;-68
2022/08/14 06:51:59;;;;;;;6.88;5.47;;;22.60;99.90;;;;;;5034534;28;20048;-68
2022/08/14 06:54:25;;;;;;;7.13;5.45;;;22.70;99.90;;;;;;5034050;28;20053;-68
2022/08/14 06:56:51;;;;;;;5.63;5.13;;;22.80;99.90;;;;;;5033968;28;20037;-68
2022/08/14 06:59:17;;;;;;;6.25;5.65;;;22.90;99.90;;;;;;5017333;28;20367;-68
2022/08/14 07:07:11;;;;;;;5.82;5.22;;;23.20;99.90;;;;;;5033844;28;20052;-69
2022/08/14 07:09:36;;;;;;;5.45;4.95;;;23.30;99.90;;;;;;5034546;28;20049;-68
2022/08/14 07:12:02;;;;;;;5.55;4.40;;;23.40;99.90;;;;;;5016565;28;20037;-68
2022/08/14 07:14:28;;;;;;;4.95;4.45;;;23.50;99.90;;;;;;5034184;28;20120;-69
2022/08/14 07:16:54;;;;;;;5.65;4.32;;;23.60;99.90;;;;;;5034085;28;20037;-65
2022/08/14 07:19:19;;;;;;;4.40;4.00;;;23.70;99.90;;;;;;5034045;28;20409;-64
2022/08/14 07:21:45;;;;;;;5.57;4.53;;;23.80;99.90;;;;;;5033674;28;20081;-64
2022/08/14 07:24:11;;;;;;;5.60;4.63;;;23.90;99.90;;;;;;5033477;28;20049;-64
2022/08/14 07:26:37;;;;;;;4.70;4.20;;;24.00;99.90;;;;;;5034072;28;20041;-65
2022/08/14 07:29:02;;;;;;;5.43;4.25;;;24.10;99.90;;;;;;5015869;28;20045;-64
2022/08/14 07:31:28;;;;;;;4.88;4.38;;;24.10;99.90;;;;;;5033214;28;20508;-65
2022/08/14 07:33:54;;;;;;;5.00;4.28;;;24.30;99.90;;;;;;5033701;28;20540;-64
2022/08/14 07:36:20;;;;;;;4.93;4.30;;;24.30;99.90;;;;;;5033754;28;20037;-64
2022/08/14 07:38:46;;;;;;;4.80;4.30;;;24.30;99.90;;;;;;5033342;28;20125;-64
2022/08/14 07:41:12;;;;;;;6.05;4.18;;;24.40;99.90;;;;;;5033346;28;20440;-64
2022/08/14 07:43:42;;;;;;;4.40;4.00;;;24.50;99.90;;;;;;5033328;28;20120;-64
2022/08/14 07:46:08;;;;;;;4.57;4.18;;;24.60;99.90;;;;;;5034134;28;20052;-65
2022/08/14 07:48:38;;;;;;;4.40;3.80;;;24.70;99.90;;;;;;5033173;28;20465;-64
2022/08/14 07:51:05;;;;;;;4.82;4.15;;;24.70;99.90;;;;;;5032325;28;20041;-66
2022/08/14 07:53:32;;;;;;;4.82;4.30;;;24.80;99.90;;;;;;5015257;28;20049;-66
2022/08/14 07:55:57;;;;;;;4.55;4.13;;;24.90;99.90;;;;;;4999199;28;20037;-66
2022/08/14 07:58:23;;;;;;;4.32;3.92;;;25.00;99.90;;;;;;5033126;28;20489;-66
2022/08/14 08:00:53;;;;;;;3.85;3.45;;;25.10;99.90;;;;;;5033423;28;20084;-65
2022/08/14 08:03:19;;;;;;;5.05;4.20;;;25.20;99.90;;;;;;5015419;28;20045;-66
2022/08/14 08:05:45;;;;;;;5.25;3.83;;;25.30;99.90;;;;;;5015970;28;20037;-65
2022/08/14 08:08:11;;;;;;;5.15;3.92;;;25.40;99.90;;;;;;5032974;28;20455;-64
2022/08/14 08:10:40;;;;;;;4.68;4.18;;;25.50;99.90;;;;;;5033467;28;20052;-65
2022/08/14 08:13:12;;;;;;;4.40;4.00;;;25.60;99.90;;;;;;5032930;28;20478;-65
2022/08/14 08:15:52;;;;;;;4.10;3.70;;;25.70;99.90;;;;;;5015503;28;20152;-66
2022/08/14 08:18:19;;;;;;;4.55;4.00;;;25.70;99.90;;;;;;5033006;28;20343;-66
2022/08/14 08:20:47;;;;;;;5.22;3.92;;;25.80;99.90;;;;;;5033150;28;20370;-65
2022/08/14 08:23:15;;;;;;;4.07;3.40;;;25.90;99.90;;;;;;5032830;28;20514;-65
2022/08/14 08:25:43;;;;;;;4.50;3.85;;;25.90;99.90;;;;;;5033298;28;20045;-64
2022/08/14 08:28:14;;;;;;;4.20;3.80;;;26.10;99.90;;;;;;5032839;28;20045;-65
2022/08/14 08:30:42;;;;;;;4.25;3.78;;;26.10;99.90;;;;;;5015164;28;20187;-65
2022/08/14 08:33:09;;;;;;;4.00;3.60;;;26.10;99.90;;;;;;5019036;28;20045;-66
2022/08/14 08:35:37;;;;;;;6.30;3.92;;;26.20;99.90;;;;;;5037187;28;20076;-65
2022/08/14 08:38:08;;;;;;;4.22;3.83;;;26.20;99.90;;;;;;5036196;28;20384;-65
2022/08/14 08:40:41;;;;;;;5.03;3.60;;;26.30;99.90;;;;;;5036608;28;20049;-65
2022/08/14 08:43:17;;;;;;;5.45;3.40;;;26.40;99.90;;;;;;5036437;28;20037;-65
2022/08/14 08:45:43;;;;;;;7.05;3.53;;;26.40;99.90;;;;;;5036410;28;20037;-66
2022/08/14 08:48:08;;;;;;;4.10;3.70;;;26.50;99.90;;;;;;5036765;28;20132;-66
2022/08/14 08:50:38;;;;;;;4.30;3.65;;;26.60;99.90;;;;;;5036776;28;20045;-66
2022/08/14 08:53:07;;;;;;;4.20;3.70;;;26.60;99.90;;;;;;5036236;28;20053;-66
2022/08/14 08:55:39;;;;;;;4.10;3.70;;;26.70;99.90;;;;;;5035879;28;20355;-66
2022/08/14 08:58:07;;;;;;;4.05;3.65;;;26.80;99.90;;;;;;5036475;28;20046;-66
2022/08/14 09:00:34;;;;;;;3.95;3.30;;;26.80;99.90;;;;;;5036137;28;20474;-67
2022/08/14 09:03:06;;;;;;;3.78;3.38;;;26.90;99.90;;;;;;5036613;28;20052;-66
2022/08/14 09:05:35;;;;;;;4.50;3.00;;;27.10;99.90;;;;;;5036833;28;20037;-66
2022/08/14 09:08:15;;;;;;;3.92;3.30;;;27.20;99.90;;;;;;5036265;28;20045;-67
2022/08/14 09:10:41;;;;;;;4.35;3.40;;;27.30;99.90;;;;;;5018949;28;20041;-66
2022/08/14 09:13:09;;;;;;;3.97;3.65;;;27.30;99.90;;;;;;5035894;28;20112;-66
2022/08/14 09:15:38;;;;;;;3.38;3.08;;;27.40;99.90;;;;;;4985916;28;20037;-66
2022/08/14 09:18:04;;;;;;;4.22;3.55;;;27.40;99.90;;;;;;5035763;28;20068;-66
2022/08/14 09:20:30;;;;;;;3.97;3.58;;;27.40;99.90;;;;;;5035795;28;20061;-66
2022/08/14 09:22:57;;;;;;;4.28;3.40;;;27.40;99.90;;;;;;5035732;28;20120;-66
2022/08/14 09:25:23;;;;;;;3.90;3.50;;;27.40;99.90;;;;;;5017800;28;20045;-66
2022/08/14 09:27:49;;;;;;;3.95;3.38;;;27.50;99.90;;;;;;5035908;28;20049;-66
2022/08/14 09:30:14;;;;;;;3.92;3.47;;;27.50;99.90;;;;;;5035552;28;20458;-65
2022/08/14 09:33:02;;;;;;;4.57;3.67;;;27.60;99.90;;;;;;5035559;28;20375;-65
2022/08/14 09:35:58;;;;;;;4.82;3.80;;;27.70;99.90;;;;;;5036224;28;20047;-65
2022/08/14 09:38:43;;;;;;;;;;;27.80;99.90;;;;;;5035838;28;20049;-65
2022/08/14 09:41:48;;;;;;;4.20;3.75;;;27.80;99.90;;;;;;5035421;28;19917;-65
2022/08/14 09:44:14;;;;;;;4.13;3.38;;;27.90;99.90;;;;;;5035868;28;20045;-65
2022/08/14 09:46:50;;;;;;;4.30;3.90;;;27.90;99.90;;;;;;5036033;28;20377;-65
2022/08/14 09:49:16;;;;;;;4.10;3.70;;;27.90;99.90;;;;;;5035204;28;20049;-65
2022/08/14 09:51:44;;;;;;;4.45;3.40;;;27.90;99.90;;;;;;5035348;28;20224;-65
2022/08/14 09:54:11;;;;;;;4.70;3.88;;;28.00;99.90;;;;;;5035059;28;20116;-65
2022/08/14 09:56:48;;;;;;;4.05;3.60;;;28.10;99.90;;;;;;5035472;28;20095;-65
2022/08/14 09:59:20;;;;;;;4.10;3.60;;;28.10;99.90;;;;;;5034998;28;20048;-65
2022/08/14 10:01:48;;;;;;;4.07;3.67;;;28.20;99.90;;;;;;5034992;28;20041;-65
2022/08/14 10:04:23;;;;;;;4.10;3.58;;;28.20;99.90;;;;;;5034852;28;20048;-64
2022/08/14 10:06:50;;;;;;;4.70;4.22;;;28.10;99.90;;;;;;5017203;28;20037;-64
2022/08/14 10:09:17;;;;;;;5.30;4.22;;;28.20;99.90;;;;;;5017238;28;20049;-65
2022/08/14 10:11:56;;;;;;;4.40;4.00;;;28.20;99.90;;;;;;5034706;28;20045;-65
2022/08/14 10:14:24;;;;;;;4.03;3.63;;;28.20;99.90;;;;;;5034759;28;20524;-65
2022/08/14 10:16:53;;;;;;;5.13;3.70;;;28.40;99.90;;;;;;5035268;28;20052;-64
2022/08/14 10:19:24;;;;;;;5.47;3.60;;;28.40;99.90;;;;;;5034362;28;20049;-65
2022/08/14 10:22:09;;;;;;;4.05;3.55;;;28.50;99.90;;;;;;5017699;28;20064;-65
2022/08/14 10:24:39;;;;;;;4.72;3.55;;;28.60;99.90;;;;;;5017603;28;20084;-65
2022/08/14 10:27:17;;;;;;;4.00;3.60;;;28.60;99.90;;;;;;5034393;28;20038;-65
2022/08/14 10:29:48;;;;;;;4.82;3.60;;;28.60;99.90;;;;;;5034513;28;20045;-64
2022/08/14 10:32:13;;;;;;;6.55;3.97;;;28.50;99.90;;;;;;5034352;28;20084;-64
2022/08/14 10:34:40;;;;;;;4.35;3.88;;;28.50;99.90;;;;;;5034398;28;20041;-65
2022/08/14 10:37:08;;;;;;;3.90;3.50;;;28.50;99.90;;;;;;5033841;28;20543;-65
2022/08/14 10:39:37;;;;;;;4.50;3.42;;;28.60;99.90;;;;;;5016540;28;20053;-66
2022/08/14 10:42:10;;;;;;;4.47;3.47;;;28.70;99.90;;;;;;5033998;28;20037;-65
2022/08/14 10:44:44;;;;;;;3.95;3.55;;;28.80;99.90;;;;;;5034145;28;20041;-65
2022/08/14 10:47:11;;;;;;;3.90;3.50;;;28.80;99.90;;;;;;5034440;28;20046;-65
2022/08/14 10:49:46;;;;;;;4.15;3.70;;;28.80;99.90;;;;;;5034104;28;20459;-66
2022/08/14 10:52:20;;;;;;;3.90;3.50;;;28.90;99.90;;;;;;5034101;28;20446;-65
2022/08/14 10:54:47;;;;;;;4.20;3.72;;;29.00;99.90;;;;;;5016505;28;20042;-65
2022/08/14 10:57:21;;;;;;;4.28;3.88;;;29.00;99.90;;;;;;5033811;28;20041;-65
2022/08/14 10:59:52;;;;;;;4.10;3.60;;;29.10;99.90;;;;;;5033819;28;20049;-65
2022/08/14 11:02:28;;;;;;;4.28;3.85;;;29.10;99.90;;;;;;4999934;28;20049;-65
2022/08/14 11:05:13;;;;;;;3.60;3.30;;;29.10;99.90;;;;;;5033730;28;20041;-65
2022/08/14 11:07:40;;;;;;;;;;;29.00;99.90;;;;;;5034232;28;20056;-65
2022/08/14 11:10:12;;;;;;;4.00;3.35;;;29.00;99.90;;;;;;5033705;28;19923;-66
2022/08/14 11:12:45;;;;;;;6.15;3.55;;;28.90;99.90;;;;;;5033845;28;20049;-65
2022/08/14 11:15:11;;;;;;;3.80;3.40;;;29.00;99.90;;;;;;5034390;28;20045;-65
2022/08/14 11:17:37;;;;;;;3.95;3.15;;;29.10;99.90;;;;;;5033535;28;20037;-64
2022/08/14 11:20:07;;;;;;;3.70;3.30;;;29.10;99.90;;;;;;5033551;28;20045;-65
2022/08/14 11:22:33;;;;;;;3.60;3.30;;;29.10;99.90;;;;;;5033523;28;20099;-65
2022/08/14 11:25:05;;;;;;;4.20;3.45;;;29.10;99.90;;;;;;5033487;28;20033;-65
2022/08/14 11:27:32;;;;;;;3.70;3.35;;;29.10;99.90;;;;;;5033481;28;20095;-65
2022/08/14 11:30:05;;;;;;;3.90;3.13;;;29.20;99.90;;;;;;5033660;28;20045;-64
2022/08/14 11:32:31;;;;;;;3.40;3.10;;;29.20;99.90;;;;;;5033415;28;20060;-65
2022/08/14 11:34:59;;;;;;;3.30;3.00;;;29.30;99.90;;;;;;5015937;28;20041;-65
2022/08/14 11:37:27;;;;;;;3.72;3.28;;;29.40;99.90;;;;;;5033176;28;20042;-64
2022/08/14 11:39:53;;;;;;;3.70;3.33;;;29.40;99.90;;;;;;5015835;28;20053;-64
2022/08/14 11:42:24;;;;;;;3.65;2.90;;;29.40;99.90;;;;;;5033253;28;20053;-65
2022/08/14 11:44:52;;;;;;;3.97;3.40;;;29.40;99.90;;;;;;5033307;28;20053;-64
2022/08/14 11:47:18;;;;;;;3.72;3.40;;;29.30;99.90;;;;;;5033289;28;20033;-64
2022/08/14 11:49:48;;;;;;;5.40;3.40;;;29.30;99.90;;;;;;5033366;28;20119;-65
2022/08/14 11:52:15;;;;;;;4.07;3.08;;;29.30;99.90;;;;;;5033183;28;20389;-64
2022/08/14 11:54:41;;;;;;;4.15;3.35;;;29.40;99.90;;;;;;5033112;28;20084;-64
2022/08/14 11:57:16;;;;;;;3.72;3.10;;;29.40;99.90;;;;;;4999358;28;20049;-64
2022/08/14 11:59:42;;;;;;;4.03;3.05;;;29.50;99.90;;;;;;5015687;28;20488;-64
2022/08/14 12:02:17;;;;;;;3.70;3.33;;;29.50;99.90;;;;;;5033539;28;20044;-64
2022/08/14 12:04:53;;;;;;;3.67;3.13;;;29.50;99.90;;;;;;5016049;28;20092;-64
2022/08/14 12:07:19;;;;;;;3.45;3.15;;;29.60;99.90;;;;;;5037642;28;20040;-64
2022/08/14 12:09:50;;;;;;;3.80;3.33;;;29.60;99.90;;;;;;5036724;28;20450;-64
2022/08/14 12:12:18;;;;;;;3.90;3.30;;;29.70;99.90;;;;;;5037337;28;20041;-65
2022/08/14 12:14:58;;;;;;;4.50;3.65;;;29.70;99.90;;;;;;5037469;28;20413;-65
2022/08/14 12:17:32;;;;;;;3.53;3.10;;;29.70;99.90;;;;;;5037660;28;20045;-64
2022/08/14 12:19:59;;;;;;;4.88;2.97;;;29.80;99.90;;;;;;5037320;28;20081;-65
2022/08/14 12:22:51;;;;;;;3.63;3.15;;;29.80;99.90;;;;;;5036975;28;20432;-66
2022/08/14 12:25:22;;;;;;;3.55;3.00;;;29.70;99.90;;;;;;5015717;28;20053;-66
2022/08/14 12:27:51;;;;;;;4.00;3.08;;;29.50;99.90;;;;;;5036707;28;20044;-65
2022/08/14 12:30:39;;;;;;;3.60;3.20;;;29.50;99.90;;;;;;5036370;28;20548;-65
2022/08/14 12:33:20;;;;;;;4.18;3.03;;;29.60;99.90;;;;;;5037070;28;20381;-65
2022/08/14 12:35:48;;;;;;;3.72;3.22;;;29.60;99.90;;;;;;5036395;28;20042;-66
2022/08/14 12:38:13;;;;;;;3.88;3.45;;;29.70;99.90;;;;;;5036598;28;20056;-65
2022/08/14 12:40:50;;;;;;;4.20;3.25;;;29.70;99.90;;;;;;5036374;28;20041;-65
2022/08/14 12:43:18;;;;;;;4.28;3.28;;;29.70;99.90;;;;;;5036300;28;20041;-66
2022/08/14 12:45:53;;;;;;;4.10;3.33;;;29.80;99.90;;;;;;5036193;28;20053;-65
2022/08/14 12:48:22;;;;;;;4.15;3.72;;;29.80;99.90;;;;;;5036245;28;20049;-65
2022/08/14 12:50:52;;;;;;;4.65;3.60;;;29.80;99.90;;;;;;5036931;28;20049;-65
2022/08/14 12:53:19;;;;;;;3.72;3.15;;;29.80;99.90;;;;;;5036187;28;20133;-66
2022/08/14 12:55:58;;;;;;;3.88;3.00;;;29.80;99.90;;;;;;5035991;28;20533;-65
2022/08/14 12:58:28;;;;;;;4.60;3.42;;;29.70;99.90;;;;;;5036145;28;20042;-65
2022/08/14 13:00:55;;;;;;;4.35;3.42;;;29.80;99.90;;;;;;5036340;28;20076;-65
2022/08/14 13:03:27;;;;;;;5.00;3.22;;;29.70;99.90;;;;;;5018361;28;20178;-65
2022/08/14 13:05:53;;;;;;;3.92;3.20;;;29.50;99.90;;;;;;5018633;28;20044;-65
2022/08/14 13:08:21;;;;;;;4.47;3.53;;;29.50;99.90;;;;;;5036071;28;20055;-65
2022/08/14 13:10:47;;;;;;;4.57;3.42;;;29.50;99.90;;;;;;5018493;28;20458;-65
2022/08/14 13:13:15;;;;;;;3.50;3.20;;;29.50;99.90;;;;;;5036748;28;20045;-65